Time;durP1;ratioP1;P1;durP2;ratioP2;P2;SDS_P1;SDS_P2;PMS_P1;PMS_P2;Temp;Humidity;BMP_temperature;BMP_pressure;BME280_temperature;BME280_humidity;BME280_pressure;Samples;Min_cycle;Max_cycle;Signal;HPM_P1;HPM_P2
2021/08/24 00:01:31;;;;;;;4.90;1.48;;;;;;;13.86;67.38;102974.16;6338714;28;20220;-74
2021/08/24 00:04:35;;;;;;;1.50;1.40;;;;;;;13.68;68.07;102977.25;6339061;28;20227;-74
2021/08/24 00:07:40;;;;;;;1.48;1.30;;;;;;;13.71;69.24;102977.69;6338301;28;20214;-74
2021/08/24 00:10:47;;;;;;;1.40;1.35;;;;;;;13.76;69.21;102972.50;6336884;28;20377;-74
2021/08/24 00:13:51;;;;;;;1.50;1.40;;;;;;;13.78;69.09;102978.69;6338517;28;20183;-74
2021/08/24 00:16:55;;;;;;;1.52;1.42;;;;;;;13.72;71.05;102979.41;6337137;28;20187;-74
2021/08/24 00:20:00;;;;;;;1.63;1.50;;;;;;;13.66;70.68;102974.66;6338440;28;20183;-74
2021/08/24 00:23:09;;;;;;;1.40;1.40;;;;;;;13.68;69.96;102971.75;6337988;28;20218;-74
2021/08/24 00:26:13;;;;;;;1.40;1.40;;;;;;;13.42;72.03;102972.16;6338150;28;20217;-74
2021/08/24 00:29:18;;;;;;;1.60;1.50;;;;;;;13.52;71.80;102972.75;6336810;28;20206;-75
2021/08/24 00:32:25;;;;;;;1.50;1.50;;;;;;;13.40;72.88;102977.00;6336732;28;20418;-74
2021/08/24 00:35:29;;;;;;;1.40;1.30;;;;;;;13.51;71.50;102971.03;6337126;28;20233;-74
2021/08/24 00:38:35;;;;;;;1.60;1.50;;;;;;;13.32;73.07;102982.53;6337685;28;20249;-74
2021/08/24 00:41:39;;;;;;;1.10;1.10;;;;;;;13.34;71.43;102979.59;6337912;28;20193;-75
2021/08/24 00:44:44;;;;;;;1.40;1.40;;;;;;;13.29;72.01;102988.38;6337964;28;20307;-74
2021/08/24 00:47:50;;;;;;;1.50;1.48;;;;;;;13.32;71.22;102985.28;6337538;28;20238;-74
2021/08/24 00:50:56;;;;;;;1.58;1.58;;;;;;;13.29;73.52;102991.13;6336572;28;20386;-74
2021/08/24 00:54:04;;;;;;;1.50;1.40;;;;;;;13.29;73.54;102999.34;6336489;28;20214;-75
2021/08/24 00:57:12;;;;;;;1.65;1.65;;;;;;;13.29;73.80;102998.47;6337399;28;20194;-74
2021/08/24 01:00:16;;;;;;;1.60;1.50;;;;;;;13.21;74.14;103007.63;6337597;28;20190;-74
2021/08/24 01:03:24;;;;;;;1.92;1.63;;;;;;;13.33;73.25;103006.16;6337154;28;20226;-74
2021/08/24 01:06:37;;;;;;;1.67;1.58;;;;;;;13.27;72.45;103023.34;6336166;28;20280;-74
2021/08/24 01:09:50;;;;;;;1.60;1.50;;;;;;;13.30;72.65;103006.50;6337549;28;20228;-74
2021/08/24 01:13:03;;;;;;;1.38;1.38;;;;;;;13.41;72.49;103008.84;6337233;28;20183;-74
2021/08/24 01:16:27;;;;;;;1.63;1.50;;;;;;;13.35;74.07;103001.38;6336103;28;20222;-74
2021/08/24 01:19:52;;;;;;;4.00;1.50;;;;;;;13.31;71.80;102994.53;6337389;28;20183;-74
2021/08/24 01:23:27;;;;;;;1.55;1.55;;;;;;;13.27;72.03;103006.91;6339420;28;20263;-75
2021/08/24 01:26:41;;;;;;;1.50;1.50;;;;;;;13.32;69.95;102998.13;6342560;28;20319;-74
2021/08/24 01:30:10;;;;;;;2.22;1.35;;;;;;;13.24;71.41;103003.66;6341203;28;20538;-75
2021/08/24 01:33:25;;;;;;;1.52;1.52;;;;;;;13.28;70.57;102997.63;6342016;28;20183;-74
2021/08/24 01:36:34;;;;;;;1.77;1.20;;;;;;;13.20;70.19;103005.91;6342343;28;20202;-74
2021/08/24 01:39:43;;;;;;;1.55;1.45;;;;;;;13.27;70.27;103006.91;6342246;28;20183;-74
2021/08/24 01:42:48;;;;;;;1.27;1.27;;;;;;;13.19;70.31;103009.69;6341631;28;20183;-74
2021/08/24 01:45:59;;;;;;;1.40;1.40;;;;;;;13.17;71.01;103017.25;6340992;28;20210;-74
2021/08/24 01:49:06;;;;;;;1.10;1.10;;;;;;;13.21;72.42;103012.25;6340964;28;20183;-74
2021/08/24 01:52:17;;;;;;;1.10;1.10;;;;;;;13.12;70.61;103012.28;6341951;28;20191;-74
2021/08/24 01:55:25;;;;;;;1.38;1.38;;;;;;;13.17;71.15;103011.78;6340534;28;20186;-74
2021/08/24 01:58:33;;;;;;;1.40;1.40;;;;;;;13.22;71.87;103009.34;6341788;28;20187;-74
2021/08/24 02:01:40;;;;;;;1.38;1.38;;;;;;;13.23;70.21;103011.03;6339242;28;20198;-74
2021/08/24 02:04:53;;;;;;;1.40;1.40;;;;;;;13.14;72.95;103007.50;6339279;28;20533;-74
2021/08/24 02:08:02;;;;;;;1.85;1.60;;;;;;;13.11;72.82;103007.88;6339917;28;20253;-74
2021/08/24 02:11:06;;;;;;;1.30;1.30;;;;;;;13.14;72.44;102998.44;6339635;28;20249;-74
2021/08/24 02:14:16;;;;;;;4.05;1.50;;;;;;;13.04;70.14;102995.91;6339612;28;20187;-74
2021/08/24 02:17:24;;;;;;;1.33;1.33;;;;;;;13.12;72.00;102997.75;6339810;28;20250;-74
2021/08/24 02:20:34;;;;;;;1.25;1.15;;;;;;;13.04;70.57;103006.00;6339783;28;20183;-74
2021/08/24 02:23:42;;;;;;;1.30;1.25;;;;;;;13.07;71.98;102994.72;6339653;28;20250;-74
2021/08/24 02:26:48;;;;;;;1.27;1.27;;;;;;;13.04;72.69;102995.03;6338661;28;20244;-74
2021/08/24 02:29:55;;;;;;;2.95;1.20;;;;;;;13.20;72.47;103000.41;6339242;28;20182;-74
2021/08/24 02:33:00;;;;;;;1.45;1.35;;;;;;;13.10;74.20;102994.31;6338796;28;20218;-75
2021/08/24 02:36:05;;;;;;;1.40;1.30;;;;;;;13.18;73.80;103002.50;6339645;28;20190;-74
2021/08/24 02:39:15;;;;;;;1.45;1.42;;;;;;;13.09;72.53;102998.13;6338185;28;20533;-74
2021/08/24 02:42:27;;;;;;;1.40;1.30;;;;;;;13.07;73.39;103000.19;6339096;28;20287;-74
2021/08/24 02:45:36;;;;;;;1.85;1.50;;;;;;;12.99;72.72;103002.94;6338892;28;20514;-74
2021/08/24 02:48:43;;;;;;;1.60;1.50;;;;;;;13.22;71.83;103003.84;6337815;28;20382;-74
2021/08/24 02:51:48;;;;;;;1.60;1.50;;;;;;;13.15;73.20;102997.38;6337796;28;20476;-74
2021/08/24 02:54:55;;;;;;;2.15;1.52;;;;;;;13.00;73.78;102993.69;6338798;28;20214;-74
2021/08/24 02:57:59;;;;;;;1.42;1.38;;;;;;;12.83;72.00;102997.56;6338654;28;20187;-75
2021/08/24 03:01:04;;;;;;;1.50;1.40;;;;;;;12.90;73.78;102998.53;6337963;28;20230;-74
2021/08/24 03:04:10;;;;;;;1.52;1.52;;;;;;;12.98;74.00;102991.13;6297705;28;1161322;-75
2021/08/24 03:07:17;;;;;;;7.32;1.60;;;;;;;12.97;72.37;102996.78;6339820;28;20270;-75
2021/08/24 03:10:25;;;;;;;1.65;1.60;;;;;;;12.76;74.34;103002.88;6339639;28;20182;-74
2021/08/24 03:13:33;;;;;;;2.13;1.45;;;;;;;12.82;72.81;103002.19;6338629;28;20475;-74
2021/08/24 03:16:43;;;;;;;9.38;1.80;;;;;;;12.92;72.31;103007.41;6339875;28;20183;-74
2021/08/24 03:19:50;;;;;;;7.40;1.95;;;;;;;12.73;73.42;103007.88;6339561;28;20183;-74
2021/08/24 03:22:56;;;;;;;2.05;1.73;;;;;;;12.68;73.84;103011.16;6338354;28;20354;-74
2021/08/24 03:26:02;;;;;;;3.70;1.90;;;;;;;12.73;73.68;103002.41;6338298;28;20206;-74
2021/08/24 03:29:08;;;;;;;11.88;1.92;;;;;;;12.83;73.87;103003.03;6338560;28;20229;-74
2021/08/24 03:32:12;;;;;;;10.80;2.03;;;;;;;12.62;73.60;103005.53;6338191;28;20382;-74
2021/08/24 03:35:18;;;;;;;14.52;2.33;;;;;;;12.60;74.59;103007.59;6338567;28;20183;-74
2021/08/24 03:38:22;;;;;;;2.13;1.90;;;;;;;12.64;74.26;103006.19;6338018;28;20210;-74
2021/08/24 03:41:28;;;;;;;8.80;1.88;;;;;;;12.62;75.10;103011.00;6337862;28;20401;-74
2021/08/24 03:44:33;;;;;;;1.92;1.83;;;;;;;12.50;76.23;103014.16;6338426;28;20229;-74
2021/08/24 03:47:37;;;;;;;4.10;1.83;;;;;;;12.35;77.01;103018.63;6339079;28;20270;-74
2021/08/24 03:50:42;;;;;;;2.10;1.90;;;;;;;12.36;77.22;103028.56;6337515;28;20373;-74
2021/08/24 03:53:49;;;;;;;1.70;1.60;;;;;;;12.61;76.39;103025.75;6339188;28;20183;-75
2021/08/24 03:56:54;;;;;;;3.47;1.90;;;;;;;12.38;75.82;103025.63;6337465;28;20366;-74
2021/08/24 03:59:59;;;;;;;5.30;1.92;;;;;;;12.49;74.66;103023.38;6337454;28;20269;-74
2021/08/24 04:03:03;;;;;;;6.15;1.80;;;;;;;12.43;74.40;103032.31;6338113;28;20552;-74
2021/08/24 04:06:08;;;;;;;2.85;1.70;;;;;;;12.49;75.75;103028.88;6338321;28;20183;-74
2021/08/24 04:09:12;;;;;;;8.00;1.70;;;;;;;12.53;76.07;103035.69;6337269;28;20410;-74
2021/08/24 04:12:18;;;;;;;1.70;1.70;;;;;;;12.39;76.92;103039.19;6337213;28;20354;-74
2021/08/24 04:15:22;;;;;;;5.72;2.88;;;;;;;12.46;76.87;103031.09;6338473;28;20221;-74
2021/08/24 04:18:26;;;;;;;11.77;3.42;;;;;;;12.52;75.69;103039.47;6338450;28;20187;-74
2021/08/24 04:21:31;;;;;;;11.65;2.67;;;;;;;12.48;77.21;103038.09;6337734;28;20182;-74
2021/08/24 04:24:39;;;;;;;4.22;2.42;;;;;;;12.30;78.30;103034.72;6338044;28;20252;-75
2021/08/24 04:27:45;;;;;;;6.65;2.45;;;;;;;12.49;76.47;103034.34;6336865;28;20381;-74
2021/08/24 04:30:49;;;;;;;8.70;2.28;;;;;;;12.48;77.13;103032.63;6337094;28;20186;-74
2021/08/24 04:33:53;;;;;;;4.18;2.20;;;;;;;12.36;78.19;103033.19;6337544;28;20221;-74
2021/08/24 04:36:57;;;;;;;7.07;2.00;;;;;;;12.48;76.80;103038.09;6336586;28;20236;-75
2021/08/24 04:40:01;;;;;;;4.93;1.80;;;;;;;12.68;77.94;103026.75;6336804;28;20494;-74
2021/08/24 04:43:07;;;;;;;2.00;1.95;;;;;;;12.76;77.15;103034.94;6336927;28;20182;-74
2021/08/24 04:46:11;;;;;;;3.22;2.00;;;;;;;12.72;77.57;103030.81;6337770;28;20183;-74
2021/08/24 04:49:16;;;;;;;2.78;1.83;;;;;;;12.79;77.33;103032.66;6337672;28;20218;-74
2021/08/24 04:52:20;;;;;;;7.43;1.70;;;;;;;12.88;76.35;103033.47;6337435;28;20263;-74
2021/08/24 04:55:24;;;;;;;1.65;1.60;;;;;;;12.82;76.82;103034.19;6336385;28;20269;-74
2021/08/24 04:58:30;;;;;;;1.85;1.42;;;;;;;12.78;74.42;103038.34;6337620;28;20240;-74
2021/08/24 05:01:34;;;;;;;4.28;1.85;;;;;;;12.79;76.04;103034.56;6337367;28;20228;-74
2021/08/24 05:04:39;;;;;;;2.85;1.30;;;;;;;12.72;76.07;103039.03;6336447;28;20223;-74
2021/08/24 05:07:43;;;;;;;2.85;1.30;;;;;;;12.69;72.95;103036.66;6336979;28;20182;-74
2021/08/24 05:10:47;;;;;;;1.73;1.63;;;;;;;12.68;72.31;103054.13;6336991;28;20182;-74
2021/08/24 05:13:53;;;;;;;2.90;1.42;;;;;;;12.77;72.58;103053.06;6337117;28;20198;-74
2021/08/24 05:17:00;;;;;;;1.23;1.23;;;;;;;12.76;73.51;103056.84;6337422;28;20214;-74
2021/08/24 05:20:07;;;;;;;1.95;1.10;;;;;;;12.74;71.98;103047.91;6337378;28;20193;-75
2021/08/24 05:23:15;;;;;;;2.30;1.60;;;;;;;12.82;71.19;103051.50;6319461;28;20183;-75
2021/08/24 05:26:22;;;;;;;2.40;1.38;;;;;;;12.97;71.15;103048.84;6337256;28;20259;-75
2021/08/24 05:29:28;;;;;;;1.38;1.38;;;;;;;12.98;71.23;103050.56;6337172;28;20207;-74
2021/08/24 05:32:32;;;;;;;1.42;1.40;;;;;;;12.81;70.76;103059.91;6336711;28;20253;-74
2021/08/24 05:35:37;;;;;;;1.30;1.30;;;;;;;12.81;71.69;103047.06;6335795;28;20374;-74
2021/08/24 05:38:41;;;;;;;1.23;1.23;;;;;;;12.94;72.06;103043.75;6337120;28;20250;-75
2021/08/24 05:41:45;;;;;;;1.42;1.25;;;;;;;12.97;70.85;103043.34;6337060;28;20225;-74
2021/08/24 05:44:50;;;;;;;1.48;1.38;;;;;;;13.04;70.77;103038.88;6336548;28;20266;-75
2021/08/24 05:47:58;;;;;;;1.60;1.50;;;;;;;13.12;70.35;103052.59;6336959;28;20260;-74
2021/08/24 05:51:02;;;;;;;1.15;1.15;;;;;;;13.13;69.83;103043.31;6335581;28;20223;-74
2021/08/24 05:54:06;;;;;;;1.30;1.30;;;;;;;13.04;69.77;103058.06;6335462;28;20183;-74
2021/08/24 05:57:11;;;;;;;1.25;1.25;;;;;;;13.12;70.66;103047.09;6336846;28;20190;-74
2021/08/24 06:00:20;;;;;;;1.25;1.10;;;;;;;13.23;70.26;103043.91;6335379;28;20219;-75
2021/08/24 06:03:25;;;;;;;1.13;1.13;;;;;;;13.29;71.22;103037.72;6335263;28;20590;-74
2021/08/24 06:06:31;;;;;;;1.08;1.08;;;;;;;13.20;69.88;103038.78;6335162;28;20405;-74
2021/08/24 06:09:40;;;;;;;2.97;1.30;;;;;;;13.29;69.57;103040.47;6338727;28;20627;-75
2021/08/24 06:12:45;;;;;;;1.33;1.33;;;;;;;13.36;69.37;103049.66;6341225;28;20191;-74
2021/08/24 06:15:50;;;;;;;1.33;1.33;;;;;;;13.40;68.81;103040.06;6340775;28;20183;-74
2021/08/24 06:18:56;;;;;;;1.27;1.27;;;;;;;13.44;69.57;103046.88;6340953;28;20187;-74
2021/08/24 06:22:02;;;;;;;1.40;1.30;;;;;;;13.54;69.44;103058.44;6339774;28;20319;-74
2021/08/24 06:25:07;;;;;;;2.30;1.08;;;;;;;13.57;69.03;103058.09;6339603;28;20470;-74
2021/08/24 06:28:11;;;;;;;1.60;1.13;;;;;;;13.59;68.93;103055.13;6340667;28;20183;-74
2021/08/24 06:31:20;;;;;;;1.77;1.30;;;;;;;13.68;68.27;103043.09;6339485;28;20538;-74
2021/08/24 06:34:24;;;;;;;1.15;1.15;;;;;;;13.79;68.72;103054.47;6339527;28;20506;-74
2021/08/24 06:37:29;;;;;;;1.13;1.13;;;;;;;13.96;68.46;103051.56;6340944;28;20256;-75
2021/08/24 06:40:34;;;;;;;1.20;1.20;;;;;;;14.07;67.37;103042.91;6340309;28;20200;-76
2021/08/24 06:43:39;;;;;;;1.30;1.20;;;;;;;14.25;66.97;103046.97;6339343;28;20190;-75
2021/08/24 06:46:46;;;;;;;1.27;1.17;;;;;;;14.45;66.41;103051.94;6339368;28;20183;-74
2021/08/24 06:49:50;;;;;;;1.10;1.10;;;;;;;14.84;65.85;103047.84;6340102;28;20274;-74
2021/08/24 06:52:57;;;;;;;1.73;1.73;;;;;;;15.21;65.06;103032.19;6339993;28;20182;-74
2021/08/24 06:56:03;;;;;;;1.33;1.20;;;;;;;15.44;63.30;103038.38;6340010;28;20218;-74
2021/08/24 06:59:08;;;;;;;1.25;1.25;;;;;;;15.48;62.64;103039.75;6338986;28;20187;-75
2021/08/24 07:02:14;;;;;;;1.10;1.10;;;;;;;15.44;62.85;103041.13;6339551;28;20199;-74
2021/08/24 07:05:29;;;;;;;2.75;1.20;;;;;;;15.49;63.99;103035.91;6340032;28;20193;-74
2021/08/24 07:08:34;;;;;;;1.83;1.50;;;;;;;15.35;62.92;103042.31;6339520;28;20218;-74
2021/08/24 07:11:38;;;;;;;1.73;1.30;;;;;;;15.54;63.24;103049.94;6339541;28;20217;-73
2021/08/24 07:14:43;;;;;;;1.50;1.40;;;;;;;15.33;64.29;103047.16;6339796;28;20183;-74
2021/08/24 07:17:52;;;;;;;1.20;1.20;;;;;;;15.28;62.87;103033.16;6338974;28;20205;-74
2021/08/24 07:20:57;;;;;;;1.38;1.27;;;;;;;15.43;62.75;103036.69;6337228;28;20482;-74
2021/08/24 07:24:02;;;;;;;1.27;1.17;;;;;;;15.30;62.13;103036.56;6338628;28;20183;-74
2021/08/24 07:27:06;;;;;;;1.30;1.20;;;;;;;15.29;62.79;103029.34;6338177;28;20250;-74
2021/08/24 07:30:12;;;;;;;1.23;1.23;;;;;;;15.39;62.15;103032.63;6339162;28;20211;-74
2021/08/24 07:33:18;;;;;;;1.50;1.40;;;;;;;15.50;62.07;103026.63;6338138;28;20190;-74
2021/08/24 07:36:22;;;;;;;2.20;1.20;;;;;;;15.39;62.15;103021.59;6338895;28;20187;-74
2021/08/24 07:39:26;;;;;;;1.05;1.05;;;;;;;15.24;62.75;103031.81;6338883;28;20183;-74
2021/08/24 07:42:31;;;;;;;4.13;2.00;;;;;;;15.31;62.00;103032.72;6339021;28;20182;-74
2021/08/24 07:45:35;;;;;;;1.20;1.20;;;;;;;15.33;61.83;103030.66;6339042;28;20183;-74
2021/08/24 07:48:40;;;;;;;0.93;0.93;;;;;;;15.25;61.87;103036.28;6337492;28;20474;-74
2021/08/24 07:51:46;;;;;;;1.40;1.35;;;;;;;15.34;63.01;103035.09;6338365;28;20252;-75
2021/08/24 07:54:50;;;;;;;1.10;1.10;;;;;;;15.17;62.33;103037.25;6339031;28;20183;-74
2021/08/24 07:57:55;;;;;;;1.20;1.20;;;;;;;15.12;61.99;103038.88;6337518;28;20183;-74
2021/08/24 08:01:00;;;;;;;1.35;1.35;;;;;;;15.16;64.13;103029.19;6338548;28;20206;-73
2021/08/24 08:04:06;;;;;;;1.40;1.30;;;;;;;15.19;64.05;103028.81;6339097;28;20453;-74
2021/08/24 08:07:13;;;;;;;1.85;1.27;;;;;;;15.25;63.37;103033.53;6338768;28;20190;-74
2021/08/24 08:10:18;;;;;;;1.15;1.15;;;;;;;15.26;63.94;103024.22;6338192;28;20549;-74
2021/08/24 08:13:22;;;;;;;1.30;1.20;;;;;;;15.20;63.27;103041.53;6337173;28;20377;-74
2021/08/24 08:16:29;;;;;;;1.20;1.20;;;;;;;14.88;63.09;103038.19;6338094;28;20257;-75
2021/08/24 08:19:36;;;;;;;1.20;1.20;;;;;;;14.93;64.22;103024.72;6338466;28;20284;-74
2021/08/24 08:22:42;;;;;;;3.00;1.42;;;;;;;15.13;64.02;103026.81;6337409;28;20236;-74
2021/08/24 08:25:46;;;;;;;1.30;1.30;;;;;;;15.24;64.76;103020.81;6336803;28;20183;-75
2021/08/24 08:28:51;;;;;;;1.33;1.20;;;;;;;15.21;64.08;103026.69;6337870;28;20218;-74
2021/08/24 08:31:57;;;;;;;1.55;1.50;;;;;;;15.15;63.58;103022.00;6337593;28;20207;-74
2021/08/24 08:35:03;;;;;;;1.23;1.23;;;;;;;15.28;65.30;103030.41;6337791;28;20183;-75
2021/08/24 08:38:09;;;;;;;1.60;1.60;;;;;;;15.20;63.02;103025.03;6338050;28;20259;-75
2021/08/24 08:41:23;;;;;;;1.70;1.70;;;;;;;15.36;62.81;103019.25;6336747;28;20187;-74
2021/08/24 08:44:38;;;;;;;2.15;1.40;;;;;;;15.32;61.58;103016.06;6336490;28;20191;-73
2021/08/24 08:47:56;;;;;;;3.65;1.48;;;;;;;15.35;62.37;103023.06;6336618;28;20191;-75
2021/08/24 08:51:12;;;;;;;1.55;1.45;;;;;;;15.34;61.96;103015.84;6337466;28;20225;-74
2021/08/24 08:54:26;;;;;;;1.40;1.40;;;;;;;15.37;62.24;103012.72;6337060;28;20190;-74
2021/08/24 08:57:37;;;;;;;2.25;1.25;;;;;;;15.47;62.78;103016.00;6337159;28;20189;-75
2021/08/24 09:00:47;;;;;;;1.30;1.30;;;;;;;15.42;62.53;103018.47;6337160;28;20232;-74
2021/08/24 09:04:04;;;;;;;3.83;1.60;;;;;;;15.39;61.50;103007.84;6336581;28;20276;-74
2021/08/24 09:07:32;;;;;;;1.83;1.73;;;;;;;15.35;60.69;103012.06;6336108;28;20474;-74
2021/08/24 09:10:47;;;;;;;1.60;1.60;;;;;;;15.37;60.42;103005.31;6336034;28;20211;-74
2021/08/24 09:13:57;;;;;;;2.28;1.25;;;;;;;15.39;61.83;102996.84;6336101;28;20373;-74
2021/08/24 09:17:04;;;;;;;1.60;1.50;;;;;;;15.53;62.42;102993.22;6336034;28;20440;-75
2021/08/24 09:20:20;;;;;;;2.28;1.50;;;;;;;15.60;62.38;102994.13;6337003;28;20183;-74
2021/08/24 09:23:25;;;;;;;1.60;1.60;;;;;;;15.65;62.98;102986.13;6336869;28;20221;-76
2021/08/24 09:26:42;;;;;;;2.22;1.52;;;;;;;15.73;60.77;102977.72;6336231;28;20183;-75
2021/08/24 09:29:50;;;;;;;1.38;1.38;;;;;;;15.66;59.58;102982.34;6336632;28;20183;-75
2021/08/24 09:32:59;;;;;;;1.45;1.40;;;;;;;15.51;60.23;102978.81;6336392;28;20242;-75
2021/08/24 09:36:05;;;;;;;1.80;1.70;;;;;;;15.60;61.44;102966.59;6337534;28;20246;-76
2021/08/24 09:39:12;;;;;;;1.30;1.30;;;;;;;15.71;62.24;102963.31;6336832;28;20221;-75
2021/08/24 09:42:28;;;;;;;2.65;1.35;;;;;;;15.69;60.51;102959.91;6337126;28;20186;-75
2021/08/24 09:45:33;;;;;;;1.42;1.42;;;;;;;15.80;61.15;102962.09;6340788;28;20215;-74
2021/08/24 09:48:54;;;;;;;1.60;1.60;;;;;;;15.72;59.51;102962.25;6341578;28;20214;-74
2021/08/24 09:52:05;;;;;;;1.92;1.40;;;;;;;15.58;59.26;102963.22;6341570;28;20211;-75
2021/08/24 09:55:19;;;;;;;1.77;1.67;;;;;;;15.56;59.79;102959.81;6341251;28;20252;-74
2021/08/24 09:58:30;;;;;;;1.30;1.30;;;;;;;15.80;58.24;102955.75;6341282;28;20183;-75
2021/08/24 10:01:47;;;;;;;1.52;1.52;;;;;;;15.97;58.83;102952.47;6341517;28;20277;-75
2021/08/24 10:04:54;;;;;;;5.22;1.63;;;;;;;16.05;57.87;102952.31;6341027;28;20294;-74
2021/08/24 10:08:01;;;;;;;2.35;1.50;;;;;;;16.15;59.08;102958.31;6339849;28;20289;-74
2021/08/24 10:11:14;;;;;;;1.60;1.60;;;;;;;16.13;56.88;102957.66;6339821;28;20286;-74
2021/08/24 10:14:22;;;;;;;1.95;1.85;;;;;;;16.19;57.08;102954.13;6341205;28;20226;-74
2021/08/24 10:17:34;;;;;;;1.80;1.70;;;;;;;16.24;58.76;102948.84;6340478;28;20194;-74
2021/08/24 10:20:43;;;;;;;1.85;1.77;;;;;;;16.33;57.20;102937.66;6339287;28;20205;-74
2021/08/24 10:23:56;;;;;;;2.00;1.80;;;;;;;16.29;57.18;102935.31;6339917;28;20354;-74
2021/08/24 10:27:05;;;;;;;3.00;1.90;;;;;;;16.24;56.39;102932.31;6341024;28;20215;-74
2021/08/24 10:30:13;;;;;;;1.90;1.90;;;;;;;16.38;56.54;102943.41;6340631;28;20183;-74
2021/08/24 10:33:24;;;;;;;2.35;1.50;;;;;;;16.46;57.86;102929.47;6339418;28;20274;-75
2021/08/24 10:36:34;;;;;;;2.20;1.70;;;;;;;16.36;55.63;102940.03;6340515;28;20205;-74
2021/08/24 10:39:38;;;;;;;3.63;1.80;;;;;;;16.41;54.95;102937.50;6340454;28;20250;-74
2021/08/24 10:42:59;;;;;;;4.30;1.58;;;;;;;16.52;56.99;102934.13;6340367;28;20198;-74
2021/08/24 10:46:13;;;;;;;4.00;1.75;;;;;;;16.47;54.85;102922.88;6340291;28;20249;-74
2021/08/24 10:49:19;;;;;;;1.98;1.88;;;;;;;16.54;55.04;102921.03;6339579;28;20183;-74
2021/08/24 10:52:41;;;;;;;1.60;1.50;;;;;;;16.62;54.94;102934.63;6339383;28;20210;-74
2021/08/24 10:55:50;;;;;;;2.03;1.80;;;;;;;16.88;54.25;102929.19;6339885;28;20246;-74
2021/08/24 10:59:07;;;;;;;2.17;2.08;;;;;;;17.01;54.29;102918.19;6338935;28;20191;-74
2021/08/24 11:02:22;;;;;;;1.73;1.73;;;;;;;17.15;53.41;102917.19;6340059;28;20203;-74
2021/08/24 11:05:37;;;;;;;5.25;2.00;;;;;;;17.31;52.84;102908.47;6340266;28;20215;-74
2021/08/24 11:08:53;;;;;;;1.70;1.70;;;;;;;17.29;53.61;102902.31;6340209;28;20393;-74
2021/08/24 11:12:08;;;;;;;2.70;2.03;;;;;;;17.23;52.20;102905.91;6339484;28;20210;-75
2021/08/24 11:15:29;;;;;;;2.10;2.00;;;;;;;17.33;52.81;102905.50;6338526;28;20262;-74
2021/08/24 11:18:44;;;;;;;5.15;1.92;;;;;;;17.50;51.95;102891.06;6338587;28;20462;-75
2021/08/24 11:21:53;;;;;;;1.90;1.80;;;;;;;17.47;52.07;102902.53;6339624;28;20285;-74
2021/08/24 11:25:05;;;;;;;2.00;1.90;;;;;;;17.49;51.46;102885.75;6339098;28;20189;-75
2021/08/24 11:28:26;;;;;;;5.25;1.58;;;;;;;17.66;51.70;102872.41;6338365;28;20467;-76
2021/08/24 11:31:38;;;;;;;6.78;1.95;;;;;;;17.66;52.76;102862.22;6338538;28;20276;-75
2021/08/24 11:34:47;;;;;;;2.08;2.05;;;;;;;17.89;51.54;102872.78;6338617;28;20190;-74
2021/08/24 11:37:56;;;;;;;2.70;1.92;;;;;;;17.95;51.93;102872.75;6339392;28;20210;-74
2021/08/24 11:41:04;;;;;;;2.42;2.25;;;;;;;17.98;55.09;102861.25;6337851;28;20542;-75
2021/08/24 11:44:13;;;;;;;2.03;1.92;;;;;;;17.96;52.07;102862.53;6339204;28;20279;-74
2021/08/24 11:47:24;;;;;;;2.65;2.00;;;;;;;18.00;52.24;102861.06;6338387;28;20183;-75
2021/08/24 11:50:40;;;;;;;2.00;1.95;;;;;;;17.89;50.88;102857.06;6338552;28;20187;-74
2021/08/24 11:53:52;;;;;;;2.22;2.13;;;;;;;17.96;50.06;102862.53;6338520;28;20218;-75
2021/08/24 11:56:59;;;;;;;4.35;2.15;;;;;;;18.03;50.13;102846.78;6338923;28;20190;-74
2021/08/24 12:00:06;;;;;;;1.85;1.85;;;;;;;18.01;51.14;102854.44;6338591;28;20182;-74
2021/08/24 12:03:21;;;;;;;2.88;1.80;;;;;;;18.13;51.08;102836.97;6337288;28;20269;-74
2021/08/24 12:06:31;;;;;;;1.63;1.52;;;;;;;18.07;50.84;102842.53;6335844;28;20514;-74
2021/08/24 12:09:42;;;;;;;1.75;1.75;;;;;;;18.11;50.27;102839.13;6337206;28;20187;-74
2021/08/24 12:12:50;;;;;;;1.98;1.98;;;;;;;18.22;50.65;102845.88;6338539;28;20218;-74
2021/08/24 12:16:23;;;;;;;3.25;2.00;;;;;;;18.31;49.40;102832.66;6338457;28;20217;-75
2021/08/24 12:19:31;;;;;;;1.95;1.85;;;;;;;18.18;50.14;102828.03;6338128;28;20191;-74
2021/08/24 12:22:38;;;;;;;2.22;2.08;;;;;;;18.23;50.61;102825.47;6337124;28;20365;-75
2021/08/24 12:25:45;;;;;;;1.90;1.80;;;;;;;18.16;52.46;102830.16;6338135;28;20186;-75
2021/08/24 12:28:49;;;;;;;7.25;1.70;;;;;;;18.14;51.29;102821.25;6338137;28;20190;-75
2021/08/24 12:31:56;;;;;;;1.77;1.77;;;;;;;18.13;53.43;102814.03;6336948;28;20189;-75
2021/08/24 12:35:17;;;;;;;1.92;1.92;;;;;;;18.24;51.38;102810.56;6336564;28;20383;-75
2021/08/24 12:38:43;;;;;;;2.30;2.20;;;;;;;18.20;49.81;102814.00;6336577;28;20346;-74
2021/08/24 12:41:49;;;;;;;4.28;2.15;;;;;;;18.41;49.27;102795.16;6336435;28;20338;-75
2021/08/24 12:45:20;;;;;;;3.08;2.00;;;;;;;18.49;48.80;102797.69;6336425;28;20280;-74
2021/08/24 12:48:24;;;;;;;2.05;1.92;;;;;;;18.61;49.74;102790.41;6337754;28;20188;-75
2021/08/24 12:51:32;;;;;;;2.10;2.00;;;;;;;18.61;50.25;102790.41;6337553;28;20186;-74
2021/08/24 12:54:47;;;;;;;2.17;1.73;;;;;;;18.54;47.95;102789.59;6336302;28;20222;-75
2021/08/24 12:58:02;;;;;;;2.10;2.00;;;;;;;18.57;47.13;102783.63;6337070;28;20245;-75
2021/08/24 13:01:14;;;;;;;1.75;1.75;;;;;;;18.66;47.59;102779.53;6336080;28;20363;-75
2021/08/24 13:04:23;;;;;;;2.17;2.08;;;;;;;18.71;48.20;102773.31;6336146;28;20273;-75
2021/08/24 13:07:41;;;;;;;2.35;1.80;;;;;;;18.77;49.44;102763.28;6337112;28;20183;-74
2021/08/24 13:10:49;;;;;;;2.40;2.30;;;;;;;18.71;49.64;102763.13;6336957;28;20193;-74
2021/08/24 13:13:57;;;;;;;2.42;2.28;;;;;;;18.79;49.72;102755.59;6336529;28;20206;-74
2021/08/24 13:17:01;;;;;;;2.00;2.00;;;;;;;18.83;49.30;102754.91;6336904;28;20182;-75
2021/08/24 13:20:14;;;;;;;1.77;1.67;;;;;;;18.79;49.07;102747.31;6342625;28;20302;-75
2021/08/24 13:23:30;;;;;;;2.58;2.38;;;;;;;18.89;49.69;102736.56;6340982;28;20471;-75
2021/08/24 13:26:46;;;;;;;2.22;2.13;;;;;;;18.81;48.84;102734.09;6340973;28;20262;-74
2021/08/24 13:29:51;;;;;;;4.13;2.35;;;;;;;18.79;47.88;102725.19;6342325;28;20288;-75
2021/08/24 13:33:00;;;;;;;3.47;2.53;;;;;;;18.73;49.38;102725.00;6342150;28;20210;-74
2021/08/24 13:36:09;;;;;;;2.45;2.35;;;;;;;18.91;48.61;102723.34;6341339;28;20190;-74
2021/08/24 13:39:16;;;;;;;2.33;2.22;;;;;;;18.77;49.40;102716.28;6341994;28;20190;-75
2021/08/24 13:42:21;;;;;;;4.68;2.30;;;;;;;18.67;49.06;102717.59;6340606;28;20215;-75
2021/08/24 13:45:29;;;;;;;2.70;2.28;;;;;;;18.79;49.18;102703.06;6341838;28;20187;-75
2021/08/24 13:48:35;;;;;;;2.10;2.00;;;;;;;18.82;49.28;102706.22;6340424;28;20491;-75
2021/08/24 13:51:48;;;;;;;2.38;2.33;;;;;;;18.92;48.74;102697.41;6341314;28;20187;-75
2021/08/24 13:54:55;;;;;;;2.83;2.22;;;;;;;18.91;48.16;102696.56;6341134;28;20238;-75
2021/08/24 13:58:17;;;;;;;2.28;2.08;;;;;;;18.73;47.62;102683.53;6341269;28;20183;-75
2021/08/24 14:01:24;;;;;;;2.53;2.42;;;;;;;18.72;47.75;102681.84;6340666;28;20290;-74
2021/08/24 14:04:37;;;;;;;2.22;2.13;;;;;;;18.73;50.04;102669.72;6341565;28;20361;-75
2021/08/24 14:07:43;;;;;;;6.93;2.33;;;;;;;18.83;52.03;102665.56;6341241;28;20218;-74
2021/08/24 14:10:55;;;;;;;2.72;2.53;;;;;;;18.87;55.27;102675.13;6339732;28;20209;-74
2021/08/24 14:13:59;;;;;;;2.70;2.30;;;;;;;18.99;51.66;102665.84;6340921;28;20256;-74
2021/08/24 14:17:04;;;;;;;2.65;2.45;;;;;;;18.99;49.46;102652.00;6340931;28;20246;-74
2021/08/24 14:20:17;;;;;;;4.43;2.60;;;;;;;19.04;49.25;102646.63;6340679;28;20198;-74
2021/08/24 14:23:25;;;;;;;2.50;2.40;;;;;;;18.89;49.31;102639.78;6340258;28;20190;-75
2021/08/24 14:26:34;;;;;;;3.83;2.40;;;;;;;18.96;49.85;102648.84;6340811;28;20262;-75
2021/08/24 14:29:40;;;;;;;2.67;1.80;;;;;;;19.05;50.49;102631.72;6339890;28;20215;-75
2021/08/24 14:32:46;;;;;;;5.07;1.90;;;;;;;19.04;51.31;102629.19;6340346;28;20191;-74
2021/08/24 14:35:57;;;;;;;2.17;1.80;;;;;;;18.94;52.48;102615.88;6339656;28;20285;-74